Time;durP1;ratioP1;P1;durP2;ratioP2;P2;SDS_P1;SDS_P2;PMS_P1;PMS_P2;Temp;Humidity;BMP_temperature;BMP_pressure;BME280_temperature;BME280_humidity;BME280_pressure;Samples;Min_cycle;Max_cycle;Signal;HPM_P1;HPM_P2
2022/03/13 00:02:40;;;;;;;24.88;13.20;;;;;;;;;;6211061;28;20130;-77
2022/03/13 00:05:45;;;;;;;25.35;12.23;;;;;;;;;;6212943;28;20462;-77
2022/03/13 00:08:49;;;;;;;24.50;11.50;;;;;;;;;;6211108;28;20122;-77
2022/03/13 00:11:53;;;;;;;25.15;11.98;;;;;;;;;;6208435;28;20076;-78
2022/03/13 00:14:56;;;;;;;23.55;12.02;;;;;;;;;;6212614;28;20854;-80
2022/03/13 00:17:59;;;;;;;21.25;11.07;;;;;;;;;;6212928;28;20046;-77
2022/03/13 00:21:04;;;;;;;23.92;10.90;;;;;;;;;;6213073;28;20101;-77
2022/03/13 00:24:07;;;;;;;21.73;11.20;;;;;;;;;;6212244;28;20137;-80
2022/03/13 00:27:09;;;;;;;21.88;11.63;;;;;;;;;;6211572;28;20042;-77
2022/03/13 00:30:11;;;;;;;21.60;11.07;;;;;;;;;;6212344;28;20129;-77
2022/03/13 00:33:15;;;;;;;21.65;11.68;;;;;;;;;;6211521;28;20053;-77
2022/03/13 00:36:17;;;;;;;22.50;11.15;;;;;;;;;;6226679;28;20165;-80
2022/03/13 00:39:19;;;;;;;22.40;11.25;;;;;;;;;;6210362;28;20586;-77
2022/03/13 00:42:21;;;;;;;21.50;10.50;;;;;;;;;;6211255;28;20517;-79
2022/03/13 00:45:23;;;;;;;20.00;9.38;;;;;;;;;;6209997;28;20156;-78
2022/03/13 00:48:26;;;;;;;24.17;9.75;;;;;;;;;;6259397;28;20129;-77
2022/03/13 00:51:28;;;;;;;21.35;10.52;;;;;;;;;;6234069;28;20092;-76
2022/03/13 00:54:30;;;;;;;24.95;11.25;;;;;;;;;;6235231;28;20196;-78
2022/03/13 00:57:32;;;;;;;25.17;12.00;;;;;;;;;;6226180;28;20050;-79
2022/03/13 01:00:34;;;;;;;23.60;11.70;;;;;;;;;;6210859;28;20143;-80
2022/03/13 01:03:36;;;;;;;23.10;11.15;;;;;;;;;;6225995;28;20446;-77
2022/03/13 01:06:38;;;;;;;22.60;11.35;;;;;;;;;;6219960;28;20112;-77
2022/03/13 01:09:39;;;;;;;20.02;10.10;;;;;;;;;;6215268;28;20091;-80
2022/03/13 01:12:41;;;;;;;21.77;10.90;;;;;;;;;;6195698;28;20042;-77
2022/03/13 01:15:47;;;;;;;18.73;10.02;;;;;;;;;;6213705;28;20476;-79
2022/03/13 01:18:55;;;;;;;19.73;9.70;;;;;;;;;;6214000;28;20053;-78
2022/03/13 01:21:57;;;;;;;20.45;9.40;;;;;;;;;;6214576;28;20133;-79
2022/03/13 01:24:59;;;;;;;21.30;10.05;;;;;;;;;;6246840;28;20130;-78
2022/03/13 01:28:00;;;;;;;16.98;8.77;;;;;;;;;;6215150;28;20069;-79
2022/03/13 01:31:02;;;;;;;20.27;9.68;;;;;;;;;;6215194;28;20229;-79
2022/03/13 01:34:08;;;;;;;20.38;9.20;;;;;;;;;;6214077;28;20042;-80
2022/03/13 01:37:24;;;;;;;19.55;9.95;;;;;;;;;;6215104;28;20161;-78
2022/03/13 01:40:28;;;;;;;21.35;10.40;;;;;;;;;;6215390;28;20057;-79
2022/03/13 01:43:31;;;;;;;22.58;10.68;;;;;;;;;;6227655;28;20565;-79
2022/03/13 01:46:32;;;;;;;21.50;10.30;;;;;;;;;;6239767;28;20518;-79
2022/03/13 01:49:34;;;;;;;19.63;9.82;;;;;;;;;;6214443;28;20053;-77
2022/03/13 01:52:38;;;;;;;20.55;10.93;;;;;;;;;;6214094;28;20052;-79
2022/03/13 01:55:40;;;;;;;23.13;10.20;;;;;;;;;;6215379;28;20128;-79
2022/03/13 01:58:50;;;;;;;21.02;10.80;;;;;;;;;;6214620;28;20080;-76
2022/03/13 02:01:52;;;;;;;18.55;9.93;;;;;;;;;;6215747;28;20050;-79
2022/03/13 02:04:55;;;;;;;20.30;9.95;;;;;;;;;;6239289;28;20065;-80
2022/03/13 02:07:58;;;;;;;24.45;10.18;;;;;;;;;;6227548;28;20046;-80
2022/03/13 02:11:05;;;;;;;24.00;10.27;;;;;;;;;;6197255;28;20045;-78
2022/03/13 02:14:08;;;;;;;24.08;11.40;;;;;;;;;;6215113;28;20137;-79
2022/03/13 02:17:10;;;;;;;23.15;10.60;;;;;;;;;;6213546;28;20045;-78
2022/03/13 02:20:15;;;;;;;27.95;12.32;;;;;;;;;;6221224;28;20061;-79
2022/03/13 02:23:26;;;;;;;21.85;10.43;;;;;;;;;;6225889;28;20059;-79
2022/03/13 02:26:32;;;;;;;21.02;10.23;;;;;;;;;;6216600;28;20133;-77
2022/03/13 02:29:34;;;;;;;17.27;9.07;;;;;;;;;;6215541;28;20041;-80
2022/03/13 02:32:36;;;;;;;17.80;8.95;;;;;;;;;;6238960;28;20164;-79
2022/03/13 02:35:38;;;;;;;23.75;9.57;;;;;;;;;;6231404;28;20081;-80
2022/03/13 02:38:40;;;;;;;19.10;9.30;;;;;;;;;;6231395;28;20470;-81
2022/03/13 02:41:43;;;;;;;20.40;9.00;;;;;;;;;;6214308;28;20048;-80
2022/03/13 02:44:49;;;;;;;17.17;8.05;;;;;;;;;;6213151;28;20133;-78
2022/03/13 02:47:53;;;;;;;24.45;8.98;;;;;;;;;;6233136;28;20046;-79
2022/03/13 02:50:55;;;;;;;20.17;8.40;;;;;;;;;;6228009;28;20115;-79
2022/03/13 02:53:56;;;;;;;21.77;9.30;;;;;;;;;;6224405;28;20510;-78
2022/03/13 02:56:58;;;;;;;18.10;9.07;;;;;;;;;;6226485;28;20231;-79
2022/03/13 03:00:00;;;;;;;21.00;9.52;;;;;;;;;;6213607;28;20157;-78
2022/03/13 03:03:02;;;;;;;16.40;8.00;;;;;;;;;;6215856;28;20045;-80
2022/03/13 03:06:04;;;;;;;21.60;8.85;;;;;;;;;;6225058;28;20048;-79
2022/03/13 03:09:06;;;;;;;23.58;8.75;;;;;;;;;;6239781;28;20041;-80
2022/03/13 03:12:09;;;;;;;19.38;8.98;;;;;;;;;;6234346;28;20143;-78
2022/03/13 03:15:11;;;;;;;18.63;9.43;;;;;;;;;;6215955;28;20061;-80
2022/03/13 03:18:12;;;;;;;20.67;9.38;;;;;;;;;;6213994;28;20121;-79
2022/03/13 03:21:15;;;;;;;19.30;9.32;;;;;;;;;;6222056;28;20065;-80
2022/03/13 03:24:19;;;;;;;20.75;9.70;;;;;;;;;;6220956;28;20046;-78
2022/03/13 03:27:21;;;;;;;18.30;9.15;;;;;;;;;;6223231;28;20133;-80
2022/03/13 03:30:25;;;;;;;22.52;9.90;;;;;;;;;;6244814;28;20053;-78
2022/03/13 03:33:27;;;;;;;22.48;9.82;;;;;;;;;;6244711;28;20045;-78
2022/03/13 03:36:28;;;;;;;28.40;10.20;;;;;;;;;;6238574;28;20130;-78
2022/03/13 03:39:32;;;;;;;19.70;8.98;;;;;;;;;;6220767;28;20133;-78
2022/03/13 03:42:35;;;;;;;17.98;8.85;;;;;;;;;;6216052;28;20132;-77
2022/03/13 03:45:36;;;;;;;17.85;8.13;;;;;;;;;;6216898;28;20050;-77
2022/03/13 03:48:38;;;;;;;16.58;7.47;;;;;;;;;;6219883;28;20515;-79
2022/03/13 03:51:40;;;;;;;22.90;8.82;;;;;;;;;;6236519;28;20133;-79
2022/03/13 03:54:42;;;;;;;17.83;8.48;;;;;;;;;;6216746;28;20120;-79
2022/03/13 03:57:44;;;;;;;17.55;8.40;;;;;;;;;;6217058;28;20077;-77
2022/03/13 04:00:45;;;;;;;18.92;8.93;;;;;;;;;;6219754;28;20042;-80
2022/03/13 04:03:47;;;;;;;18.95;9.32;;;;;;;;;;6220009;28;20068;-79
2022/03/13 04:06:51;;;;;;;21.05;10.23;;;;;;;;;;6225507;28;20137;-79
2022/03/13 04:09:53;;;;;;;18.75;9.13;;;;;;;;;;6237858;28;20037;-77
2022/03/13 04:12:55;;;;;;;20.65;8.60;;;;;;;;;;6215894;28;20046;-78
2022/03/13 04:15:56;;;;;;;17.23;8.90;;;;;;;;;;6217423;28;20038;-77
2022/03/13 04:18:58;;;;;;;19.85;8.38;;;;;;;;;;6219810;28;20157;-79
2022/03/13 04:22:00;;;;;;;20.48;8.52;;;;;;;;;;6217804;28;20042;-79
2022/03/13 04:25:02;;;;;;;18.30;8.27;;;;;;;;;;6219353;28;20116;-80
2022/03/13 04:28:08;;;;;;;17.77;8.23;;;;;;;;;;6227016;28;20075;-79
2022/03/13 04:31:13;;;;;;;17.33;8.57;;;;;;;;;;6242956;28;20111;-79
2022/03/13 04:34:16;;;;;;;17.15;8.25;;;;;;;;;;6246160;28;20353;-76
2022/03/13 04:37:18;;;;;;;17.92;8.38;;;;;;;;;;6215691;28;20045;-78
2022/03/13 04:40:20;;;;;;;20.87;8.50;;;;;;;;;;6274476;28;20053;-77
2022/03/13 04:43:23;;;;;;;16.52;8.05;;;;;;;;;;6241144;28;20124;-79
2022/03/13 04:46:25;;;;;;;16.13;7.68;;;;;;;;;;6239080;28;20100;-79
2022/03/13 04:49:28;;;;;;;17.10;8.30;;;;;;;;;;6241165;28;20578;-78
2022/03/13 04:52:29;;;;;;;18.30;8.13;;;;;;;;;;6239782;28;20136;-78
2022/03/13 04:55:31;;;;;;;17.92;7.75;;;;;;;;;;6241169;28;20045;-77
2022/03/13 04:58:34;;;;;;;15.90;7.72;;;;;;;;;;6222800;28;20558;-79
2022/03/13 05:01:36;;;;;;;15.87;7.70;;;;;;;;;;6214360;28;20172;-77
2022/03/13 05:04:38;;;;;;;15.30;7.60;;;;;;;;;;6214511;28;20049;-79
2022/03/13 05:07:40;;;;;;;15.65;7.13;;;;;;;;;;6227765;28;20053;-78
2022/03/13 05:10:47;;;;;;;17.52;8.02;;;;;;;;;;6238136;28;20056;-79
2022/03/13 05:13:49;;;;;;;23.05;10.20;;;;;;;;;;6220948;28;20175;-79
2022/03/13 05:16:51;;;;;;;19.48;8.77;;;;;;;;;;6215263;28;20128;-78
2022/03/13 05:19:52;;;;;;;15.80;8.65;;;;;;;;;;6216689;28;20514;-77
2022/03/13 05:22:55;;;;;;;23.48;8.55;;;;;;;;;;6226350;28;20041;-80
2022/03/13 05:25:56;;;;;;;18.15;8.63;;;;;;;;;;6239057;28;20041;-78
2022/03/13 05:28:58;;;;;;;17.58;8.18;;;;;;;;;;6239482;28;20056;-79
2022/03/13 05:31:59;;;;;;;17.70;8.38;;;;;;;;;;6239080;28;20138;-79
2022/03/13 05:35:02;;;;;;;15.75;7.53;;;;;;;;;;6216301;28;20125;-78
2022/03/13 05:38:04;;;;;;;16.88;7.97;;;;;;;;;;6235144;28;20107;-79
2022/03/13 05:41:07;;;;;;;15.88;7.95;;;;;;;;;;6241136;28;20046;-80
2022/03/13 05:44:10;;;;;;;15.50;7.43;;;;;;;;;;6221560;28;20050;-79
2022/03/13 05:47:12;;;;;;;20.45;8.15;;;;;;;;;;6199499;28;20184;-80
2022/03/13 05:50:15;;;;;;;19.23;8.77;;;;;;;;;;6210546;28;20057;-79
2022/03/13 05:53:17;;;;;;;19.10;8.50;;;;;;;;;;6228211;28;20645;-77
2022/03/13 05:56:19;;;;;;;19.05;8.02;;;;;;;;;;6204438;28;20713;-79
2022/03/13 05:59:21;;;;;;;20.75;8.35;;;;;;;;;;6210580;28;20135;-79
2022/03/13 06:02:23;;;;;;;17.30;8.05;;;;;;;;;;6214251;28;20188;-78
2022/03/13 06:05:25;;;;;;;20.80;8.10;;;;;;;;;;6212411;28;20054;-80
2022/03/13 06:08:26;;;;;;;14.95;7.88;;;;;;;;;;6201478;28;20510;-78
2022/03/13 06:11:28;;;;;;;18.88;8.05;;;;;;;;;;6222174;28;20079;-78
2022/03/13 06:14:30;;;;;;;21.23;9.73;;;;;;;;;;6237169;28;20494;-77
2022/03/13 06:17:32;;;;;;;19.95;9.48;;;;;;;;;;6227127;28;20502;-79
2022/03/13 06:20:35;;;;;;;17.42;9.45;;;;;;;;;;6250221;28;20053;-80
2022/03/13 06:23:37;;;;;;;16.35;7.97;;;;;;;;;;6227275;28;20079;-79
2022/03/13 06:26:39;;;;;;;24.15;10.32;;;;;;;;;;6212869;28;20471;-78
2022/03/13 06:29:41;;;;;;;22.55;10.60;;;;;;;;;;6222940;28;20674;-78
2022/03/13 06:32:44;;;;;;;21.60;9.43;;;;;;;;;;6228855;28;20084;-77
2022/03/13 06:35:45;;;;;;;17.30;8.48;;;;;;;;;;6225338;28;20042;-79
2022/03/13 06:38:47;;;;;;;26.50;11.15;;;;;;;;;;6213405;28;20136;-77
2022/03/13 06:41:51;;;;;;;26.33;10.80;;;;;;;;;;6234788;28;20041;-77
2022/03/13 06:44:52;;;;;;;22.13;10.32;;;;;;;;;;6251286;28;20475;-78
2022/03/13 06:47:55;;;;;;;17.88;8.13;;;;;;;;;;6224570;28;20119;-78
2022/03/13 06:50:57;;;;;;;17.52;8.82;;;;;;;;;;6232054;28;20049;-79
2022/03/13 06:53:59;;;;;;;22.50;10.53;;;;;;;;;;6211628;28;20564;-80
2022/03/13 06:57:01;;;;;;;22.20;8.80;;;;;;;;;;6216164;28;20107;-81
2022/03/13 07:00:03;;;;;;;18.90;9.05;;;;;;;;;;6232539;28;20110;-79
2022/03/13 07:03:05;;;;;;;18.97;9.33;;;;;;;;;;6235723;28;20056;-79
2022/03/13 07:06:07;;;;;;;18.63;8.70;;;;;;;;;;6225914;28;20038;-80
2022/03/13 07:09:09;;;;;;;17.23;7.97;;;;;;;;;;6220088;28;20089;-78
2022/03/13 07:12:12;;;;;;;19.30;8.32;;;;;;;;;;6213988;28;20145;-80
2022/03/13 07:15:14;;;;;;;16.92;8.00;;;;;;;;;;6210613;28;20125;-78
2022/03/13 07:18:17;;;;;;;15.32;8.18;;;;;;;;;;6211747;28;20216;-82
2022/03/13 07:21:19;;;;;;;19.00;9.10;;;;;;;;;;6232548;28;20103;-78
2022/03/13 07:24:21;;;;;;;17.40;9.45;;;;;;;;;;6214591;28;20173;-78
2022/03/13 07:27:22;;;;;;;16.52;8.63;;;;;;;;;;6216954;28;20041;-79
2022/03/13 07:30:24;;;;;;;16.27;7.80;;;;;;;;;;6222557;28;20728;-80
2022/03/13 07:33:26;;;;;;;20.08;9.68;;;;;;;;;;6193482;28;20046;-79
2022/03/13 07:36:28;;;;;;;22.58;9.05;;;;;;;;;;6205953;28;20054;-77
2022/03/13 07:39:29;;;;;;;18.27;9.18;;;;;;;;;;6206229;28;20056;-79
2022/03/13 07:42:31;;;;;;;19.48;8.70;;;;;;;;;;6212044;28;20037;-79
2022/03/13 07:45:33;;;;;;;17.35;8.75;;;;;;;;;;6211991;28;20057;-79
2022/03/13 07:48:35;;;;;;;19.02;8.25;;;;;;;;;;6236718;28;20095;-78
2022/03/13 07:51:36;;;;;;;16.65;9.52;;;;;;;;;;6235226;28;20043;-78
2022/03/13 07:54:38;;;;;;;22.50;12.20;;;;;;;;;;6237563;28;20436;-78
2022/03/13 07:57:40;;;;;;;23.90;12.77;;;;;;;;;;6228637;28;20069;-79
2022/03/13 08:00:42;;;;;;;22.65;11.50;;;;;;;;;;6232630;28;20123;-78
2022/03/13 08:03:45;;;;;;;24.55;12.13;;;;;;;;;;6239205;28;20561;-78
2022/03/13 08:06:47;;;;;;;26.53;12.77;;;;;;;;;;6238144;28;20131;-80
2022/03/13 08:09:48;;;;;;;19.00;10.20;;;;;;;;;;6229609;28;20045;-78
2022/03/13 08:12:53;;;;;;;21.67;11.65;;;;;;;;;;6217791;28;20603;-79
2022/03/13 08:15:55;;;;;;;16.98;9.48;;;;;;;;;;6221020;28;20053;-78
2022/03/13 08:18:57;;;;;;;17.98;10.45;;;;;;;;;;6224475;28;20062;-80
2022/03/13 08:21:59;;;;;;;17.58;9.43;;;;;;;;;;6212111;28;20552;-78
2022/03/13 08:25:02;;;;;;;17.52;10.15;;;;;;;;;;6192323;28;20049;-80
2022/03/13 08:28:06;;;;;;;15.45;8.98;;;;;;;;;;6225684;28;20083;-80
2022/03/13 08:31:08;;;;;;;15.00;8.65;;;;;;;;;;6234585;28;20668;-79
2022/03/13 08:34:10;;;;;;;15.00;8.45;;;;;;;;;;6243044;28;20128;-80
2022/03/13 08:37:13;;;;;;;19.73;10.15;;;;;;;;;;6243181;28;20105;-77
2022/03/13 08:40:14;;;;;;;14.23;8.80;;;;;;;;;;6239363;28;20041;-78
2022/03/13 08:43:16;;;;;;;14.98;7.68;;;;;;;;;;6207270;28;20911;-79
2022/03/13 08:46:18;;;;;;;14.55;8.40;;;;;;;;;;6202492;28;20041;-81
2022/03/13 08:49:19;;;;;;;11.27;6.75;;;;;;;;;;6199990;28;20054;-78
2022/03/13 08:52:22;;;;;;;9.40;5.63;;;;;;;;;;6198376;28;20065;-78
2022/03/13 08:55:24;;;;;;;9.60;5.97;;;;;;;;;;6210398;28;20050;-78
2022/03/13 08:58:27;;;;;;;;;;;;;;;;;;6217630;28;20672;-77
2022/03/13 09:01:28;;;;;;;10.30;6.13;;;;;;;;;;6225645;28;20043;-77
2022/03/13 09:04:31;;;;;;;9.77;5.97;;;;;;;;;;6213710;28;20052;-79
2022/03/13 09:07:33;;;;;;;10.40;6.10;;;;;;;;;;6204265;28;20053;-79
2022/03/13 09:10:34;;;;;;;9.65;6.18;;;;;;;;;;6221391;28;20040;-78
2022/03/13 09:13:36;;;;;;;9.10;5.32;;;;;;;;;;6221117;28;20124;-79
2022/03/13 09:16:40;;;;;;;9.00;5.68;;;;;;;;;;6237479;28;20069;-80
2022/03/13 09:19:42;;;;;;;10.00;6.03;;;;;;;;;;6238826;28;20459;-80
2022/03/13 09:22:43;;;;;;;9.45;5.68;;;;;;;;;;6240738;28;20048;-79
2022/03/13 09:25:45;;;;;;;8.10;5.25;;;;;;;;;;6240420;28;20136;-80
2022/03/13 09:28:47;;;;;;;10.98;5.93;;;;;;;;;;6235281;28;20515;-80
2022/03/13 09:31:48;;;;;;;8.77;6.10;;;;;;;;;;6242654;28;20112;-81
2022/03/13 09:34:51;;;;;;;11.68;5.72;;;;;;;;;;6239561;28;20073;-80
2022/03/13 09:37:52;;;;;;;9.70;6.28;;;;;;;;;;6238402;28;20033;-78
2022/03/13 09:40:56;;;;;;;9.73;6.30;;;;;;;;;;6239205;28;20167;-78
2022/03/13 09:43:59;;;;;;;10.40;5.93;;;;;;;;;;6221168;28;20671;-79
2022/03/13 09:47:03;;;;;;;;;;;;;;;;;;6230493;28;20534;-80
2022/03/13 09:50:06;;;;;;;;;;;;;;;;;;6235449;28;19928;-79
2022/03/13 09:53:08;;;;;;;10.25;5.57;;;;;;;;;;6209290;28;20486;-80
2022/03/13 09:56:10;;;;;;;8.93;5.95;;;;;;;;;;6223486;28;20556;-78
2022/03/13 09:59:12;;;;;;;10.88;6.30;;;;;;;;;;6216980;28;20041;-80
2022/03/13 10:02:14;;;;;;;8.75;5.88;;;;;;;;;;6207102;28;20054;-80
2022/03/13 10:05:18;;;;;;;9.43;6.32;;;;;;;;;;6212802;28;20119;-78
2022/03/13 10:08:29;;;;;;;10.40;5.93;;;;;;;;;;6209759;28;20058;-77
2022/03/13 10:11:33;;;;;;;10.57;6.60;;;;;;;;;;6213489;28;20275;-78
2022/03/13 10:14:38;;;;;;;10.02;6.38;;;;;;;;;;6236314;28;20087;-79
2022/03/13 10:17:41;;;;;;;9.23;6.53;;;;;;;;;;6244604;28;20037;-78
2022/03/13 10:20:44;;;;;;;10.33;6.27;;;;;;;;;;6223605;28;20038;-80
2022/03/13 10:23:49;;;;;;;13.05;6.75;;;;;;;;;;6214928;28;20800;-77
2022/03/13 10:27:08;;;;;;;11.18;6.78;;;;;;;;;;6211882;28;20185;-78
2022/03/13 10:30:10;;;;;;;8.57;6.13;;;;;;;;;;6258661;28;20065;-78
2022/03/13 10:33:12;;;;;;;11.13;6.57;;;;;;;;;;6235823;28;20171;-77
2022/03/13 10:36:25;;;;;;;10.32;7.35;;;;;;;;;;6232021;28;20185;-80
2022/03/13 10:39:27;;;;;;;9.68;6.80;;;;;;;;;;6210798;28;20450;-80
2022/03/13 10:42:29;;;;;;;11.63;7.18;;;;;;;;;;6227823;28;20576;-78
2022/03/13 10:45:37;;;;;;;9.98;6.78;;;;;;;;;;6258310;28;20180;-80
2022/03/13 10:48:44;;;;;;;9.82;6.40;;;;;;;;;;6237914;28;20053;-79
2022/03/13 10:51:46;;;;;;;10.52;6.55;;;;;;;;;;6221955;28;20756;-77
2022/03/13 10:54:48;;;;;;;9.97;6.50;;;;;;;;;;6242235;28;20065;-78
2022/03/13 10:57:55;;;;;;;10.13;6.32;;;;;;;;;;6233863;28;20180;-80
2022/03/13 11:01:04;;;;;;;9.93;6.25;;;;;;;;;;6238903;28;20518;-78
2022/03/13 11:04:07;;;;;;;10.15;6.72;;;;;;;;;;6237412;28;20042;-79
2022/03/13 11:07:08;;;;;;;11.35;7.32;;;;;;;;;;6196163;28;20070;-82
2022/03/13 11:10:11;;;;;;;10.93;7.32;;;;;;;;;;6216242;28;20432;-82
2022/03/13 11:13:14;;;;;;;9.65;6.10;;;;;;;;;;6243244;28;20046;-79
2022/03/13 11:16:21;;;;;;;10.02;6.70;;;;;;;;;;6226740;28;20761;-80
2022/03/13 11:19:24;;;;;;;11.50;6.50;;;;;;;;;;6243329;28;20061;-80
2022/03/13 11:22:28;;;;;;;12.93;6.75;;;;;;;;;;6243784;28;20101;-79
2022/03/13 11:25:30;;;;;;;10.57;6.63;;;;;;;;;;6244240;28;20073;-81
2022/03/13 11:28:32;;;;;;;10.38;6.63;;;;;;;;;;6231092;28;20068;-79
2022/03/13 11:31:37;;;;;;;9.97;6.40;;;;;;;;;;6216023;28;20125;-79
2022/03/13 11:34:42;;;;;;;8.38;6.63;;;;;;;;;;6217787;28;20503;-79
2022/03/13 11:37:54;;;;;;;10.52;6.70;;;;;;;;;;6216484;28;20105;-80
2022/03/13 11:40:55;;;;;;;9.35;6.57;;;;;;;;;;6216321;28;20048;-78
2022/03/13 11:44:02;;;;;;;9.10;6.22;;;;;;;;;;6220083;28;20196;-77
2022/03/13 11:47:23;;;;;;;10.50;7.13;;;;;;;;;;6220599;28;20049;-78
2022/03/13 11:50:56;;;;;;;10.50;7.05;;;;;;;;;;6221738;28;20143;-80
2022/03/13 11:54:00;;;;;;;;;;;;;;;;;;6219217;28;20062;-76
2022/03/13 11:57:12;;;;;;;12.07;6.70;;;;;;;;;;6235670;28;19925;-80
2022/03/13 12:00:14;;;;;;;7.70;6.22;;;;;;;;;;6253247;28;20045;-82
2022/03/13 12:03:18;;;;;;;10.52;7.10;;;;;;;;;;6221032;28;20045;-80
2022/03/13 12:06:42;;;;;;;10.05;7.30;;;;;;;;;;6222839;28;20045;-79
2022/03/13 12:09:44;;;;;;;11.15;7.28;;;;;;;;;;6234710;28;20143;-79
2022/03/13 12:13:12;;;;;;;10.85;7.60;;;;;;;;;;6248178;28;20069;-80
2022/03/13 12:16:15;;;;;;;12.85;7.38;;;;;;;;;;6218365;28;20096;-79
2022/03/13 12:19:19;;;;;;;12.35;8.43;;;;;;;;;;6217901;28;20076;-78
2022/03/13 12:22:22;;;;;;;12.00;8.00;;;;;;;;;;6200528;28;20115;-77
2022/03/13 12:25:25;;;;;;;11.13;7.60;;;;;;;;;;6217917;28;20172;-78
2022/03/13 12:28:32;;;;;;;11.65;7.80;;;;;;;;;;6228955;28;20083;-79
2022/03/13 12:31:48;;;;;;;12.50;7.57;;;;;;;;;;6241605;28;20053;-79
2022/03/13 12:34:53;;;;;;;11.55;7.65;;;;;;;;;;6243334;28;20045;-77
2022/03/13 12:38:01;;;;;;;11.43;7.82;;;;;;;;;;6230088;28;20133;-76
2022/03/13 12:41:08;;;;;;;11.27;7.35;;;;;;;;;;6216141;28;20779;-78
2022/03/13 12:44:12;;;;;;;12.75;7.65;;;;;;;;;;6234363;28;20046;-79
2022/03/13 12:47:28;;;;;;;11.35;8.38;;;;;;;;;;6229902;28;20065;-81
2022/03/13 12:50:37;;;;;;;12.38;7.85;;;;;;;;;;6240082;28;20136;-80
2022/03/13 12:53:38;;;;;;;11.68;7.88;;;;;;;;;;6236517;28;20103;-80
2022/03/13 12:56:49;;;;;;;13.57;8.60;;;;;;;;;;6238874;28;20119;-78
2022/03/13 12:59:51;;;;;;;13.38;8.30;;;;;;;;;;6213033;28;20514;-80
2022/03/13 13:02:58;;;;;;;12.00;8.20;;;;;;;;;;6214844;28;20056;-81
2022/03/13 13:06:00;;;;;;;13.88;8.55;;;;;;;;;;6229555;28;20045;-79
2022/03/13 13:09:03;;;;;;;11.77;7.68;;;;;;;;;;6214860;28;20105;-79
2022/03/13 13:12:07;;;;;;;13.13;8.63;;;;;;;;;;6212417;28;20133;-78
2022/03/13 13:15:12;;;;;;;14.30;8.90;;;;;;;;;;6213118;28;20050;-78
2022/03/13 13:18:17;;;;;;;11.20;8.32;;;;;;;;;;6215888;28;20038;-80
2022/03/13 13:21:31;;;;;;;17.38;9.45;;;;;;;;;;6217019;28;20121;-80
2022/03/13 13:24:35;;;;;;;13.82;8.70;;;;;;;;;;6216918;28;20133;-78
2022/03/13 13:27:38;;;;;;;14.45;8.82;;;;;;;;;;6201509;28;20049;-79
2022/03/13 13:30:41;;;;;;;15.70;9.27;;;;;;;;;;6237853;28;20049;-78
2022/03/13 13:33:46;;;;;;;14.43;9.15;;;;;;;;;;6237280;28;20069;-81
2022/03/13 13:36:48;;;;;;;13.52;8.45;;;;;;;;;;6204849;28;20586;-80
2022/03/13 13:40:06;;;;;;;13.38;8.15;;;;;;;;;;6212773;28;20097;-78
2022/03/13 13:43:11;;;;;;;13.35;8.65;;;;;;;;;;6214421;28;20045;-80
2022/03/13 13:46:15;;;;;;;14.50;8.65;;;;;;;;;;6219976;28;20041;-81
2022/03/13 13:49:25;;;;;;;14.15;8.85;;;;;;;;;;6234837;28;20434;-80
2022/03/13 13:52:30;;;;;;;13.13;8.95;;;;;;;;;;6228377;28;20046;-79
2022/03/13 13:55:37;;;;;;;12.68;8.57;;;;;;;;;;6211925;28;20188;-78
2022/03/13 13:58:38;;;;;;;12.60;8.48;;;;;;;;;;6209765;28;20037;-79
2022/03/13 14:01:41;;;;;;;16.13;9.15;;;;;;;;;;6215821;28;20503;-79
2022/03/13 14:04:47;;;;;;;15.18;9.25;;;;;;;;;;6212687;28;20042;-79
2022/03/13 14:07:49;;;;;;;16.00;8.77;;;;;;;;;;6231435;28;20041;-79
2022/03/13 14:10:51;;;;;;;16.40;8.38;;;;;;;;;;6217112;28;20046;-79
2022/03/13 14:13:53;;;;;;;14.02;8.82;;;;;;;;;;6247758;28;20056;-81
2022/03/13 14:16:55;;;;;;;16.05;8.82;;;;;;;;;;6214782;28;20045;-79
2022/03/13 14:19:57;;;;;;;14.02;8.80;;;;;;;;;;6205767;28;20136;-80
2022/03/13 14:22:59;;;;;;;14.15;8.77;;;;;;;;;;6226883;28;20125;-77
2022/03/13 14:26:01;;;;;;;15.05;9.05;;;;;;;;;;6253822;28;20132;-79
2022/03/13 14:29:03;;;;;;;15.37;9.53;;;;;;;;;;6237366;28;20144;-79
2022/03/13 14:32:05;;;;;;;13.98;8.50;;;;;;;;;;6220949;28;20048;-78
2022/03/13 14:35:07;;;;;;;13.20;8.30;;;;;;;;;;6217913;28;20098;-78
2022/03/13 14:38:09;;;;;;;13.93;8.77;;;;;;;;;;6197776;28;20050;-81
2022/03/13 14:41:13;;;;;;;15.15;9.00;;;;;;;;;;6231739;28;20127;-76
2022/03/13 14:44:15;;;;;;;15.65;9.65;;;;;;;;;;6218771;28;20085;-79
2022/03/13 14:47:16;;;;;;;22.25;13.15;;;;;;;;;;6236757;28;20124;-80
2022/03/13 14:50:38;;;;;;;18.75;10.55;;;;;;;;;;6245438;28;20526;-78
2022/03/13 14:53:40;;;;;;;17.05;11.30;;;;;;;;;;6220446;28;20124;-79
2022/03/13 14:56:42;;;;;;;17.27;11.52;;;;;;;;;;6218767;28;20121;-79
2022/03/13 14:59:43;;;;;;;16.67;10.82;;;;;;;;;;6245722;28;20502;-79
2022/03/13 15:02:45;;;;;;;16.33;10.05;;;;;;;;;;6243321;28;20061;-79
2022/03/13 15:05:48;;;;;;;25.13;16.30;;;;;;;;;;6239381;28;20609;-78
2022/03/13 15:08:50;;;;;;;27.13;15.23;;;;;;;;;;6218668;28;20053;-79
2022/03/13 15:11:51;;;;;;;18.60;11.45;;;;;;;;;;6217770;28;20065;-78
2022/03/13 15:14:53;;;;;;;14.20;8.82;;;;;;;;;;6222438;28;20399;-79
2022/03/13 15:17:55;;;;;;;14.60;9.03;;;;;;;;;;6223826;28;20116;-78
2022/03/13 15:20:58;;;;;;;16.35;9.30;;;;;;;;;;6244859;28;20091;-80
2022/03/13 15:24:00;;;;;;;15.98;8.77;;;;;;;;;;6231988;28;20037;-81
2022/03/13 15:27:04;;;;;;;17.13;9.63;;;;;;;;;;6205989;28;20144;-81
2022/03/13 15:30:07;;;;;;;17.58;9.43;;;;;;;;;;6233889;28;20384;-79
2022/03/13 15:33:09;;;;;;;16.30;9.82;;;;;;;;;;6246733;28;20092;-77
2022/03/13 15:36:11;;;;;;;15.52;8.63;;;;;;;;;;6219735;28;20094;-79
2022/03/13 15:39:12;;;;;;;14.45;8.43;;;;;;;;;;6237595;28;20109;-83
2022/03/13 15:42:16;;;;;;;;;;;;;;;;;;6224232;28;20101;-78
2022/03/13 15:45:18;;;;;;;15.38;8.77;;;;;;;;;;6221931;28;19931;-80
2022/03/13 15:48:20;;;;;;;15.80;8.98;;;;;;;;;;6247863;28;20493;-80
2022/03/13 15:51:22;;;;;;;17.73;9.57;;;;;;;;;;6227063;28;20507;-79
2022/03/13 15:54:23;;;;;;;20.30;9.23;;;;;;;;;;6247319;28;20081;-81
2022/03/13 15:57:25;;;;;;;17.50;9.32;;;;;;;;;;6247220;28;20166;-80
2022/03/13 16:00:27;;;;;;;18.05;9.23;;;;;;;;;;6250521;28;20495;-79
2022/03/13 16:03:29;;;;;;;17.83;10.25;;;;;;;;;;6250243;28;20052;-77
2022/03/13 16:06:34;;;;;;;15.37;8.70;;;;;;;;;;6242542;28;20050;-78
2022/03/13 16:09:36;;;;;;;16.92;9.60;;;;;;;;;;6225931;28;20049;-79
2022/03/13 16:12:38;;;;;;;14.65;8.90;;;;;;;;;;6238781;28;20165;-79
2022/03/13 16:15:41;;;;;;;15.18;8.85;;;;;;;;;;6229590;28;20041;-78
2022/03/13 16:18:42;;;;;;;17.50;9.82;;;;;;;;;;6241436;28;20057;-78
2022/03/13 16:21:45;;;;;;;20.00;10.90;;;;;;;;;;6236013;28;20121;-79
2022/03/13 16:24:46;;;;;;;19.07;10.50;;;;;;;;;;6234317;28;20042;-78
2022/03/13 16:27:48;;;;;;;19.17;10.13;;;;;;;;;;6237577;28;20089;-81
2022/03/13 16:30:50;;;;;;;18.35;10.93;;;;;;;;;;6243176;28;20060;-80
2022/03/13 16:33:52;;;;;;;17.42;10.25;;;;;;;;;;6230463;28;20073;-80
2022/03/13 16:36:53;;;;;;;19.25;11.35;;;;;;;;;;6246458;28;20064;-77
2022/03/13 16:39:56;;;;;;;22.90;12.88;;;;;;;;;;6246026;28;20187;-79
2022/03/13 16:42:58;;;;;;;19.67;11.23;;;;;;;;;;6236810;28;20048;-77
2022/03/13 16:46:00;;;;;;;22.95;11.40;;;;;;;;;;6227986;28;20041;-78
2022/03/13 16:49:02;;;;;;;20.25;10.13;;;;;;;;;;6221649;28;20057;-80
2022/03/13 16:52:05;;;;;;;16.73;9.75;;;;;;;;;;6240719;28;20125;-80
2022/03/13 16:55:07;;;;;;;18.08;9.98;;;;;;;;;;6234037;28;20458;-78
2022/03/13 16:58:10;;;;;;;20.27;10.43;;;;;;;;;;6227923;28;20038;-79
2022/03/13 17:01:11;;;;;;;24.63;12.35;;;;;;;;;;6246219;28;20084;-79
2022/03/13 17:04:13;;;;;;;88.93;27.08;;;;;;;;;;6231495;28;20128;-78
2022/03/13 17:07:16;;;;;;;62.05;22.52;;;;;;;;;;6238063;28;20077;-79
2022/03/13 17:10:18;;;;;;;38.65;17.63;;;;;;;;;;6218582;28;20057;-79
2022/03/13 17:13:20;;;;;;;34.40;16.67;;;;;;;;;;6216526;28;20124;-78
2022/03/13 17:16:21;;;;;;;24.95;12.85;;;;;;;;;;6219537;28;20137;-79
2022/03/13 17:19:24;;;;;;;28.27;14.75;;;;;;;;;;6241789;28;20448;-78
2022/03/13 17:22:25;;;;;;;28.80;13.77;;;;;;;;;;6219577;28;20438;-80
2022/03/13 17:25:27;;;;;;;20.88;11.23;;;;;;;;;;6217462;28;20516;-80
2022/03/13 17:28:29;;;;;;;23.35;13.73;;;;;;;;;;6207149;28;20126;-79
2022/03/13 17:31:31;;;;;;;26.35;12.55;;;;;;;;;;6213308;28;20500;-79
2022/03/13 17:34:34;;;;;;;18.38;11.35;;;;;;;;;;6215940;28;20384;-76
2022/03/13 17:37:35;;;;;;;24.20;11.30;;;;;;;;;;6214655;28;20046;-80
2022/03/13 17:40:37;;;;;;;22.67;13.07;;;;;;;;;;6215126;28;20044;-78
2022/03/13 17:43:39;;;;;;;45.13;20.33;;;;;;;;;;6245679;28;20736;-81
2022/03/13 17:46:41;;;;;;;37.53;14.82;;;;;;;;;;6225518;28;20041;-81
2022/03/13 17:49:43;;;;;;;71.15;29.67;;;;;;;;;;6237936;28;20179;-79
2022/03/13 17:52:45;;;;;;;52.13;25.25;;;;;;;;;;6220201;28;20139;-80
2022/03/13 17:55:46;;;;;;;29.30;15.55;;;;;;;;;;6215475;28;20046;-79
2022/03/13 17:58:48;;;;;;;19.83;11.65;;;;;;;;;;6217388;28;20142;-81
2022/03/13 18:01:49;;;;;;;25.45;13.63;;;;;;;;;;6214798;28;20133;-81